Aeroporto :
LOGIN :

Iscrizione | Disclaimer

   EN    FR    IT 

 










Sommario :    VFR   VFR Marginale   IFR   IFR Intensivo   IFR Molto Intensivo
Visibilità : 
Base nubi : 
>= 8 km
>= 3000ft
5 / 8 km
1000 / 3000 ft
1500m / 5 km
500 / 1000 ft
800 / 1500m
200 / 500 ft
< 800m
< 200 ft
Simboli :   Temporali  Nebbia  Neve Forte  Precipitazioni Forti  Vento > 20 kt
SIGMETs :   Varie  Temporali  Ghiacco  Turbolenza  Onda orograficha  Ceneri Vulcaniche






- Altitudine del aeroporto : 142 ft
- Codice IATA : ALC


LEAL - Alicante

ULTIMO METAR :
  • 150500Z 28004KT 250V320 CAVOK 11/05 Q1015 NOSIG

METARs OBSOLETI :
  • 150430Z 28008KT CAVOK 11/05 Q1015 NOSIG
  • 150400Z 28008KT CAVOK 11/05 Q1015 NOSIG
  • 150330Z 27013KT CAVOK 12/05 Q1016 NOSIG
  • 150300Z 29007KT 260V320 CAVOK 12/05 Q1016 NOSIG
  • 150230Z 28011KT CAVOK 12/05 Q1016 NOSIG

TAF TAF LEAL
Valido dal 15 a 00 ore il 16 a 00 ore UTC


142300Z 1500/1524 30010KT 9999 FEW040 TX19/1512Z TN09/1506Z
PROB40
TEMPO 1500/1506 29015G25KT
PROB40
TEMPO 1512/1520 20010KT



MetMap, La meteo Aeronautica in un colpo d'occhio ! - Copyright ORBIFLY Dicembre 2007 - Disclaimer

ORBIFLY MET'MAP TEAM :

Programmazione e sviluppo : Alexandra Zaïnal
Concezione : Baudouin d'Aumeries
Aiuto per la programmazione : Marc-Olivier Méhu
Supporto tecnico e logistico : Manuel Goepfert
Aiuto per la traduzione : Arnaldo La Scala

Contatto : metmap@orbifly.com




FONTI E CREDITI :

   NOAA